sensor_id;sensor_type;location;lat;lon;timestamp;pressure;altitude;pressure_sealevel;temperature;humidity
28626;BME280;18905;42.668;23.364;2023-02-01T00:00:10;95185.06;;;1.14;100.00
28626;BME280;18905;42.668;23.364;2023-02-01T00:02:35;95183.72;;;1.17;100.00
28626;BME280;18905;42.668;23.364;2023-02-01T00:05:05;95188.06;;;1.28;100.00
28626;BME280;18905;42.668;23.364;2023-02-01T00:07:30;95197.69;;;1.39;100.00
28626;BME280;18905;42.668;23.364;2023-02-01T00:09:56;95185.63;;;1.21;100.00
28626;BME280;18905;42.668;23.364;2023-02-01T00:12:21;95182.38;;;1.56;100.00
28626;BME280;18905;42.668;23.364;2023-02-01T00:14:47;95181.00;;;1.48;100.00
28626;BME280;18905;42.668;23.364;2023-02-01T00:17:13;95152.56;;;1.54;100.00
28626;BME280;18905;42.668;23.364;2023-02-01T00:19:39;95187.94;;;1.54;100.00
28626;BME280;18905;42.668;23.364;2023-02-01T00:22:04;95176.53;;;1.59;100.00
28626;BME280;18905;42.668;23.364;2023-02-01T00:24:29;95175.88;;;1.32;100.00
28626;BME280;18905;42.668;23.364;2023-02-01T00:26:55;95174.78;;;1.33;100.00
28626;BME280;18905;42.668;23.364;2023-02-01T00:29:21;95188.63;;;1.35;100.00
28626;BME280;18905;42.668;23.364;2023-02-01T00:31:48;95164.56;;;1.10;100.00
28626;BME280;18905;42.668;23.364;2023-02-01T00:34:15;95165.63;;;1.09;100.00
28626;BME280;18905;42.668;23.364;2023-02-01T00:36:42;95161.44;;;1.23;100.00
28626;BME280;18905;42.668;23.364;2023-02-01T00:39:08;95175.84;;;1.27;100.00
28626;BME280;18905;42.668;23.364;2023-02-01T00:41:34;95173.47;;;1.30;100.00
28626;BME280;18905;42.668;23.364;2023-02-01T00:44:00;95167.63;;;1.33;100.00
28626;BME280;18905;42.668;23.364;2023-02-01T00:46:27;95165.69;;;1.19;100.00
28626;BME280;18905;42.668;23.364;2023-02-01T00:48:52;95162.97;;;1.09;100.00
28626;BME280;18905;42.668;23.364;2023-02-01T00:51:20;95162.78;;;1.20;100.00
28626;BME280;18905;42.668;23.364;2023-02-01T00:53:46;95152.66;;;1.22;100.00
28626;BME280;18905;42.668;23.364;2023-02-01T00:56:12;95158.16;;;1.06;100.00
28626;BME280;18905;42.668;23.364;2023-02-01T00:58:38;95167.78;;;1.17;100.00
28626;BME280;18905;42.668;23.364;2023-02-01T01:03:34;95156.56;;;1.05;100.00
28626;BME280;18905;42.668;23.364;2023-02-01T01:06:02;95168.59;;;1.17;100.00
28626;BME280;18905;42.668;23.364;2023-02-01T01:08:27;95166.78;;;1.28;100.00
28626;BME280;18905;42.668;23.364;2023-02-01T01:10:53;95161.00;;;1.36;100.00
28626;BME280;18905;42.668;23.364;2023-02-01T01:13:18;95160.31;;;1.09;100.00
28626;BME280;18905;42.668;23.364;2023-02-01T01:15:44;95113.34;;;0.83;100.00
28626;BME280;18905;42.668;23.364;2023-02-01T01:18:09;95164.13;;;1.28;100.00
28626;BME280;18905;42.668;23.364;2023-02-01T01:20:37;95164.59;;;1.15;100.00
28626;BME280;18905;42.668;23.364;2023-02-01T01:23:03;95163.53;;;1.16;100.00
28626;BME280;18905;42.668;23.364;2023-02-01T01:25:29;95151.91;;;1.27;100.00
28626;BME280;18905;42.668;23.364;2023-02-01T01:27:54;95146.81;;;1.20;100.00
28626;BME280;18905;42.668;23.364;2023-02-01T01:30:20;95147.38;;;1.32;100.00
28626;BME280;18905;42.668;23.364;2023-02-01T01:32:45;95146.41;;;1.02;100.00
28626;BME280;18905;42.668;23.364;2023-02-01T01:35:11;95147.59;;;1.21;100.00
28626;BME280;18905;42.668;23.364;2023-02-01T01:37:36;95148.09;;;1.13;100.00
28626;BME280;18905;42.668;23.364;2023-02-01T01:40:06;95164.31;;;1.11;100.00
28626;BME280;18905;42.668;23.364;2023-02-01T01:42:40;95158.84;;;1.33;100.00
28626;BME280;18905;42.668;23.364;2023-02-01T01:47:45;95160.63;;;1.22;100.00
28626;BME280;18905;42.668;23.364;2023-02-01T01:50:15;95184.41;;;1.39;100.00
28626;BME280;18905;42.668;23.364;2023-02-01T01:52:43;95155.66;;;1.31;100.00
28626;BME280;18905;42.668;23.364;2023-02-01T01:55:13;95100.22;;;0.66;100.00
28626;BME280;18905;42.668;23.364;2023-02-01T01:57:42;95166.94;;;1.06;100.00
28626;BME280;18905;42.668;23.364;2023-02-01T02:00:11;95165.56;;;0.99;100.00
28626;BME280;18905;42.668;23.364;2023-02-01T02:02:38;95166.22;;;0.79;100.00
28626;BME280;18905;42.668;23.364;2023-02-01T02:05:05;95171.09;;;0.92;100.00
28626;BME280;18905;42.668;23.364;2023-02-01T02:07:37;95157.97;;;0.76;100.00
28626;BME280;18905;42.668;23.364;2023-02-01T02:10:07;95162.59;;;0.95;100.00
28626;BME280;18905;42.668;23.364;2023-02-01T02:12:38;95168.47;;;0.61;100.00
28626;BME280;18905;42.668;23.364;2023-02-01T02:15:05;95132.13;;;0.35;100.00
28626;BME280;18905;42.668;23.364;2023-02-01T02:20:33;95160.03;;;0.69;100.00
28626;BME280;18905;42.668;23.364;2023-02-01T02:35:03;95152.94;;;0.47;100.00
28626;BME280;18905;42.668;23.364;2023-02-01T02:37:59;95160.41;;;0.51;100.00
28626;BME280;18905;42.668;23.364;2023-02-01T02:40:48;95150.72;;;0.35;100.00
28626;BME280;18905;42.668;23.364;2023-02-01T02:43:22;95153.66;;;0.70;100.00
28626;BME280;18905;42.668;23.364;2023-02-01T02:49:17;95104.09;;;0.17;100.00
28626;BME280;18905;42.668;23.364;2023-02-01T02:51:50;95157.25;;;0.54;100.00
28626;BME280;18905;42.668;23.364;2023-02-01T02:54:39;95149.13;;;0.65;100.00
28626;BME280;18905;42.668;23.364;2023-02-01T02:57:13;95148.50;;;0.58;100.00
28626;BME280;18905;42.668;23.364;2023-02-01T03:00:01;95158.34;;;0.58;100.00
28626;BME280;18905;42.668;23.364;2023-02-01T03:02:48;95149.66;;;0.36;100.00
28626;BME280;18905;42.668;23.364;2023-02-01T03:05:34;95158.03;;;0.54;100.00
28626;BME280;18905;42.668;23.364;2023-02-01T03:08:12;95160.38;;;0.46;100.00
28626;BME280;18905;42.668;23.364;2023-02-01T03:13:42;95171.25;;;0.76;100.00
28626;BME280;18905;42.668;23.364;2023-02-01T03:18:54;95172.97;;;0.97;100.00
28626;BME280;18905;42.668;23.364;2023-02-01T03:24:09;95178.72;;;0.84;100.00
28626;BME280;18905;42.668;23.364;2023-02-01T03:26:39;95179.25;;;0.81;100.00
28626;BME280;18905;42.668;23.364;2023-02-01T03:29:16;95178.72;;;0.84;100.00
28626;BME280;18905;42.668;23.364;2023-02-01T03:31:42;95178.00;;;0.57;100.00
28626;BME280;18905;42.668;23.364;2023-02-01T03:34:10;95183.25;;;0.83;100.00
28626;BME280;18905;42.668;23.364;2023-02-01T03:36:40;95199.03;;;0.95;100.00
28626;BME280;18905;42.668;23.364;2023-02-01T03:41:50;95188.94;;;0.97;100.00
28626;BME280;18905;42.668;23.364;2023-02-01T03:49:47;95182.84;;;0.96;100.00
28626;BME280;18905;42.668;23.364;2023-02-01T03:52:23;95186.38;;;1.12;100.00
28626;BME280;18905;42.668;23.364;2023-02-01T03:54:50;95179.91;;;0.98;100.00
28626;BME280;18905;42.668;23.364;2023-02-01T03:57:22;95193.31;;;0.76;100.00
28626;BME280;18905;42.668;23.364;2023-02-01T03:59:49;95174.94;;;0.75;100.00
28626;BME280;18905;42.668;23.364;2023-02-01T04:02:14;95171.72;;;0.68;100.00
28626;BME280;18905;42.668;23.364;2023-02-01T04:04:40;95188.28;;;1.16;100.00
28626;BME280;18905;42.668;23.364;2023-02-01T04:07:05;95189.81;;;1.07;100.00
28626;BME280;18905;42.668;23.364;2023-02-01T04:09:31;95187.97;;;1.08;100.00
28626;BME280;18905;42.668;23.364;2023-02-01T04:11:57;95187.38;;;1.01;100.00
28626;BME280;18905;42.668;23.364;2023-02-01T04:14:22;95157.00;;;0.92;100.00
28626;BME280;18905;42.668;23.364;2023-02-01T04:16:48;95174.41;;;1.14;100.00
28626;BME280;18905;42.668;23.364;2023-02-01T04:19:13;95155.31;;;0.76;100.00
28626;BME280;18905;42.668;23.364;2023-02-01T04:21:38;95144.44;;;0.82;100.00
28626;BME280;18905;42.668;23.364;2023-02-01T04:24:04;95156.25;;;0.96;100.00
28626;BME280;18905;42.668;23.364;2023-02-01T04:26:30;95182.19;;;1.26;100.00
28626;BME280;18905;42.668;23.364;2023-02-01T04:28:55;95179.66;;;1.04;100.00
28626;BME280;18905;42.668;23.364;2023-02-01T04:31:21;95187.44;;;1.11;100.00
28626;BME280;18905;42.668;23.364;2023-02-01T04:33:53;95180.44;;;1.00;100.00
28626;BME280;18905;42.668;23.364;2023-02-01T04:36:20;95176.84;;;1.21;100.00
28626;BME280;18905;42.668;23.364;2023-02-01T04:38:49;95183.72;;;1.17;100.00
28626;BME280;18905;42.668;23.364;2023-02-01T04:41:15;95159.56;;;1.23;100.00
28626;BME280;18905;42.668;23.364;2023-02-01T04:43:46;95176.59;;;1.22;100.00
28626;BME280;18905;42.668;23.364;2023-02-01T04:46:12;95194.00;;;1.40;100.00
28626;BME280;18905;42.668;23.364;2023-02-01T04:48:37;95189.91;;;1.27;100.00
28626;BME280;18905;42.668;23.364;2023-02-01T04:51:03;95177.13;;;1.19;100.00
28626;BME280;18905;42.668;23.364;2023-02-01T04:53:28;95172.94;;;1.28;100.00
28626;BME280;18905;42.668;23.364;2023-02-01T04:55:55;95191.56;;;1.28;100.00
28626;BME280;18905;42.668;23.364;2023-02-01T04:58:20;95195.00;;;1.34;100.00
28626;BME280;18905;42.668;23.364;2023-02-01T05:00:46;95197.97;;;0.96;100.00
28626;BME280;18905;42.668;23.364;2023-02-01T05:03:12;95203.47;;;1.26;100.00
28626;BME280;18905;42.668;23.364;2023-02-01T05:05:37;95200.47;;;1.12;100.00
28626;BME280;18905;42.668;23.364;2023-02-01T05:08:03;95210.41;;;1.27;100.00
28626;BME280;18905;42.668;23.364;2023-02-01T05:10:28;95219.50;;;1.31;100.00
28626;BME280;18905;42.668;23.364;2023-02-01T05:12:53;95205.34;;;1.25;100.00
28626;BME280;18905;42.668;23.364;2023-02-01T05:15:37;95221.91;;;1.37;100.00
28626;BME280;18905;42.668;23.364;2023-02-01T05:18:03;95216.34;;;1.44;100.00
28626;BME280;18905;42.668;23.364;2023-02-01T05:20:28;95231.06;;;1.51;100.00
28626;BME280;18905;42.668;23.364;2023-02-01T05:22:54;95205.31;;;1.20;100.00
28626;BME280;18905;42.668;23.364;2023-02-01T05:25:19;95207.94;;;1.15;100.00
28626;BME280;18905;42.668;23.364;2023-02-01T05:27:45;95204.88;;;1.33;100.00
28626;BME280;18905;42.668;23.364;2023-02-01T05:30:11;95214.97;;;1.36;100.00
28626;BME280;18905;42.668;23.364;2023-02-01T05:32:36;95214.25;;;1.46;100.00
28626;BME280;18905;42.668;23.364;2023-02-01T05:35:02;95226.00;;;1.55;100.00
28626;BME280;18905;42.668;23.364;2023-02-01T05:37:27;95221.69;;;1.49;100.00
28626;BME280;18905;42.668;23.364;2023-02-01T05:39:53;95226.56;;;1.62;100.00
28626;BME280;18905;42.668;23.364;2023-02-01T05:42:18;95230.00;;;1.52;100.00
28626;BME280;18905;42.668;23.364;2023-02-01T05:44:44;95222.59;;;1.64;100.00
28626;BME280;18905;42.668;23.364;2023-02-01T05:47:09;95231.41;;;1.70;100.00
28626;BME280;18905;42.668;23.364;2023-02-01T05:49:35;95226.69;;;1.82;100.00
28626;BME280;18905;42.668;23.364;2023-02-01T05:52:01;95216.16;;;1.55;100.00
28626;BME280;18905;42.668;23.364;2023-02-01T05:54:26;95229.53;;;1.65;100.00
28626;BME280;18905;42.668;23.364;2023-02-01T05:56:52;95217.59;;;1.78;100.00
28626;BME280;18905;42.668;23.364;2023-02-01T05:59:17;95200.28;;;1.75;100.00
28626;BME280;18905;42.668;23.364;2023-02-01T06:01:43;95204.03;;;1.79;100.00
28626;BME280;18905;42.668;23.364;2023-02-01T06:04:08;95209.84;;;1.71;100.00
28626;BME280;18905;42.668;23.364;2023-02-01T06:06:34;95218.94;;;1.80;100.00
28626;BME280;18905;42.668;23.364;2023-02-01T06:08:59;95235.78;;;1.91;100.00
28626;BME280;18905;42.668;23.364;2023-02-01T06:11:25;95233.53;;;1.68;100.00
28626;BME280;18905;42.668;23.364;2023-02-01T06:13:51;95230.22;;;2.02;100.00
28626;BME280;18905;42.668;23.364;2023-02-01T06:16:16;95230.00;;;2.19;100.00
28626;BME280;18905;42.668;23.364;2023-02-01T06:18:41;95236.69;;;2.21;100.00
28626;BME280;18905;42.668;23.364;2023-02-01T06:21:07;95232.13;;;2.17;100.00
28626;BME280;18905;42.668;23.364;2023-02-01T06:23:33;95238.53;;;2.21;100.00
28626;BME280;18905;42.668;23.364;2023-02-01T06:26:04;95224.66;;;2.14;100.00
28626;BME280;18905;42.668;23.364;2023-02-01T06:28:30;95241.72;;;2.18;100.00
28626;BME280;18905;42.668;23.364;2023-02-01T06:30:56;95227.84;;;2.11;100.00
28626;BME280;18905;42.668;23.364;2023-02-01T06:33:24;95228.72;;;2.36;100.00
28626;BME280;18905;42.668;23.364;2023-02-01T06:35:56;95226.28;;;2.20;100.00
28626;BME280;18905;42.668;23.364;2023-02-01T06:38:22;95204.63;;;1.96;100.00
28626;BME280;18905;42.668;23.364;2023-02-01T06:40:52;95246.34;;;2.47;100.00
28626;BME280;18905;42.668;23.364;2023-02-01T06:43:18;95241.31;;;2.66;100.00
28626;BME280;18905;42.668;23.364;2023-02-01T06:45:43;95242.38;;;2.60;100.00
28626;BME280;18905;42.668;23.364;2023-02-01T06:48:09;95244.53;;;2.88;100.00
28626;BME280;18905;42.668;23.364;2023-02-01T06:50:34;95202.31;;;2.35;100.00
28626;BME280;18905;42.668;23.364;2023-02-01T06:53:00;95252.28;;;2.99;100.00
28626;BME280;18905;42.668;23.364;2023-02-01T06:55:25;95239.19;;;2.98;100.00
28626;BME280;18905;42.668;23.364;2023-02-01T06:57:54;95265.09;;;3.17;100.00
28626;BME280;18905;42.668;23.364;2023-02-01T07:00:21;95233.31;;;3.11;100.00
28626;BME280;18905;42.668;23.364;2023-02-01T07:02:47;95246.13;;;2.79;100.00
28626;BME280;18905;42.668;23.364;2023-02-01T07:05:12;95237.56;;;2.57;100.00
28626;BME280;18905;42.668;23.364;2023-02-01T07:07:37;95277.09;;;3.05;100.00
28626;BME280;18905;42.668;23.364;2023-02-01T07:10:03;95274.63;;;2.68;100.00
28626;BME280;18905;42.668;23.364;2023-02-01T07:12:28;95273.84;;;2.78;100.00
28626;BME280;18905;42.668;23.364;2023-02-01T07:14:54;95268.00;;;3.01;100.00
28626;BME280;18905;42.668;23.364;2023-02-01T07:17:19;95272.00;;;3.08;100.00
28626;BME280;18905;42.668;23.364;2023-02-01T07:19:45;95272.28;;;3.17;100.00
28626;BME280;18905;42.668;23.364;2023-02-01T07:22:10;95288.81;;;3.04;100.00
28626;BME280;18905;42.668;23.364;2023-02-01T07:24:35;95282.94;;;2.92;100.00
28626;BME280;18905;42.668;23.364;2023-02-01T07:27:01;95267.44;;;2.59;100.00
28626;BME280;18905;42.668;23.364;2023-02-01T07:29:26;95300.50;;;2.73;100.00
28626;BME280;18905;42.668;23.364;2023-02-01T07:31:52;95292.53;;;2.73;100.00
28626;BME280;18905;42.668;23.364;2023-02-01T07:34:17;95299.44;;;2.79;100.00
28626;BME280;18905;42.668;23.364;2023-02-01T07:36:42;95282.13;;;2.81;100.00
28626;BME280;18905;42.668;23.364;2023-02-01T07:39:08;95288.69;;;2.44;100.00
28626;BME280;18905;42.668;23.364;2023-02-01T07:41:33;95286.63;;;2.61;100.00
28626;BME280;18905;42.668;23.364;2023-02-01T07:43:58;95294.34;;;2.52;100.00
28626;BME280;18905;42.668;23.364;2023-02-01T07:46:24;95285.53;;;2.57;100.00
28626;BME280;18905;42.668;23.364;2023-02-01T07:48:49;95320.03;;;2.98;100.00
28626;BME280;18905;42.668;23.364;2023-02-01T07:51:16;95309.88;;;2.95;100.00
28626;BME280;18905;42.668;23.364;2023-02-01T07:53:42;95314.94;;;2.87;100.00
28626;BME280;18905;42.668;23.364;2023-02-01T07:56:19;95312.81;;;3.09;100.00
28626;BME280;18905;42.668;23.364;2023-02-01T07:58:53;95315.47;;;2.99;100.00
28626;BME280;18905;42.668;23.364;2023-02-01T08:01:24;95329.63;;;3.14;100.00
28626;BME280;18905;42.668;23.364;2023-02-01T08:03:52;95330.16;;;3.01;100.00
28626;BME280;18905;42.668;23.364;2023-02-01T08:06:18;95340.84;;;3.11;100.00
28626;BME280;18905;42.668;23.364;2023-02-01T08:08:45;95340.59;;;3.28;100.00
28626;BME280;18905;42.668;23.364;2023-02-01T08:11:12;95336.84;;;3.14;100.00
28626;BME280;18905;42.668;23.364;2023-02-01T08:13:38;95311.22;;;3.03;100.00
28626;BME280;18905;42.668;23.364;2023-02-01T08:16:05;95343.53;;;3.21;100.00
28626;BME280;18905;42.668;23.364;2023-02-01T08:18:31;95317.09;;;3.05;100.00
28626;BME280;18905;42.668;23.364;2023-02-01T08:20:57;95311.47;;;2.96;100.00
28626;BME280;18905;42.668;23.364;2023-02-01T08:23:27;95326.19;;;3.19;100.00
28626;BME280;18905;42.668;23.364;2023-02-01T08:25:52;95306.44;;;3.00;100.00
28626;BME280;18905;42.668;23.364;2023-02-01T08:28:17;95327.78;;;3.25;100.00
28626;BME280;18905;42.668;23.364;2023-02-01T08:30:43;95317.94;;;3.20;99.46
28626;BME280;18905;42.668;23.364;2023-02-01T08:33:09;95332.59;;;3.43;99.50
28626;BME280;18905;42.668;23.364;2023-02-01T08:35:35;95336.88;;;3.64;96.92
28626;BME280;18905;42.668;23.364;2023-02-01T08:38:01;95330.19;;;3.56;96.19
28626;BME280;18905;42.668;23.364;2023-02-01T08:40:27;95331.00;;;3.57;96.11
28626;BME280;18905;42.668;23.364;2023-02-01T08:42:53;95338.97;;;3.82;94.95
28626;BME280;18905;42.668;23.364;2023-02-01T08:45:23;95334.16;;;3.84;93.51
28626;BME280;18905;42.668;23.364;2023-02-01T08:47:55;95298.38;;;3.85;90.87
28626;BME280;18905;42.668;23.364;2023-02-01T08:50:20;95292.72;;;3.96;89.56
28626;BME280;18905;42.668;23.364;2023-02-01T08:52:47;95328.66;;;4.44;89.13
28626;BME280;18905;42.668;23.364;2023-02-01T08:55:13;95308.50;;;4.71;85.97
28626;BME280;18905;42.668;23.364;2023-02-01T08:57:39;95327.22;;;5.15;82.77
28626;BME280;18905;42.668;23.364;2023-02-01T09:00:07;95334.19;;;5.88;76.69
28626;BME280;18905;42.668;23.364;2023-02-01T09:02:33;95312.69;;;6.16;70.88
28626;BME280;18905;42.668;23.364;2023-02-01T09:04:59;95324.34;;;6.96;80.20
28626;BME280;18905;42.668;23.364;2023-02-01T09:07:25;95328.19;;;6.48;66.93
28626;BME280;18905;42.668;23.364;2023-02-01T09:09:50;95321.94;;;6.05;67.31
28626;BME280;18905;42.668;23.364;2023-02-01T09:12:16;95325.91;;;5.79;68.96
28626;BME280;18905;42.668;23.364;2023-02-01T09:14:41;95328.56;;;5.84;69.41
28626;BME280;18905;42.668;23.364;2023-02-01T09:17:07;95324.75;;;5.23;71.21
28626;BME280;18905;42.668;23.364;2023-02-01T09:19:32;95322.78;;;5.39;73.14
28626;BME280;18905;42.668;23.364;2023-02-01T09:21:58;95326.22;;;5.44;72.74
28626;BME280;18905;42.668;23.364;2023-02-01T09:24:23;95310.03;;;4.82;74.89
28626;BME280;18905;42.668;23.364;2023-02-01T09:26:49;95304.47;;;4.69;77.76
28626;BME280;18905;42.668;23.364;2023-02-01T09:29:14;95330.63;;;4.82;77.50
28626;BME280;18905;42.668;23.364;2023-02-01T09:31:40;95340.22;;;5.31;75.48
28626;BME280;18905;42.668;23.364;2023-02-01T09:34:06;95316.03;;;5.75;73.03
28626;BME280;18905;42.668;23.364;2023-02-01T09:36:32;95296.88;;;6.20;69.84
28626;BME280;18905;42.668;23.364;2023-02-01T09:38:58;95329.84;;;6.44;69.51
28626;BME280;18905;42.668;23.364;2023-02-01T09:41:51;95326.81;;;7.11;66.80
28626;BME280;18905;42.668;23.364;2023-02-01T09:44:39;95304.34;;;6.65;65.64
28626;BME280;18905;42.668;23.364;2023-02-01T09:47:13;95311.84;;;5.97;69.65
28626;BME280;18905;42.668;23.364;2023-02-01T09:49:45;95317.44;;;6.24;67.30
28626;BME280;18905;42.668;23.364;2023-02-01T09:52:16;95315.81;;;6.28;66.84
28626;BME280;18905;42.668;23.364;2023-02-01T09:54:53;95286.94;;;5.92;67.01
28626;BME280;18905;42.668;23.364;2023-02-01T09:57:25;95309.66;;;6.70;65.92
28626;BME280;18905;42.668;23.364;2023-02-01T09:59:57;95296.44;;;6.55;64.46
28626;BME280;18905;42.668;23.364;2023-02-01T10:02:27;95299.72;;;6.52;66.05
28626;BME280;18905;42.668;23.364;2023-02-01T10:04:55;95300.63;;;6.42;64.95
28626;BME280;18905;42.668;23.364;2023-02-01T10:13:23;95295.53;;;7.20;62.26
28626;BME280;18905;42.668;23.364;2023-02-01T10:29:34;95228.22;;;8.21;55.83
28626;BME280;18905;42.668;23.364;2023-02-01T10:32:01;95245.06;;;8.67;55.29
28626;BME280;18905;42.668;23.364;2023-02-01T10:34:32;95249.09;;;7.97;56.38
28626;BME280;18905;42.668;23.364;2023-02-01T10:37:17;95246.28;;;8.47;55.76
28626;BME280;18905;42.668;23.364;2023-02-01T10:39:48;95235.13;;;8.27;56.20
28626;BME280;18905;42.668;23.364;2023-02-01T10:42:20;95233.19;;;8.14;54.42
28626;BME280;18905;42.668;23.364;2023-02-01T10:44:46;95228.09;;;8.53;55.17
28626;BME280;18905;42.668;23.364;2023-02-01T10:47:14;95242.72;;;9.45;52.75
28626;BME280;18905;42.668;23.364;2023-02-01T10:49:52;95242.84;;;9.18;52.06
28626;BME280;18905;42.668;23.364;2023-02-01T10:52:46;95237.97;;;9.72;51.93
28626;BME280;18905;42.668;23.364;2023-02-01T10:55:53;95218.03;;;8.04;52.86
28626;BME280;18905;42.668;23.364;2023-02-01T10:58:20;95226.53;;;9.01;53.18
28626;BME280;18905;42.668;23.364;2023-02-01T11:00:53;95217.28;;;8.31;53.77
28626;BME280;18905;42.668;23.364;2023-02-01T11:03:37;95221.56;;;8.94;53.88
28626;BME280;18905;42.668;23.364;2023-02-01T11:06:11;95236.16;;;9.37;52.38
28626;BME280;18905;42.668;23.364;2023-02-01T11:08:50;95216.19;;;8.32;52.89
28626;BME280;18905;42.668;23.364;2023-02-01T11:11:16;95241.22;;;9.17;52.36
28626;BME280;18905;42.668;23.364;2023-02-01T11:13:42;95219.56;;;8.10;54.12
28626;BME280;18905;42.668;23.364;2023-02-01T11:16:12;95237.25;;;7.39;54.71
28626;BME280;18905;42.668;23.364;2023-02-01T11:18:39;95236.03;;;7.13;57.07
28626;BME280;18905;42.668;23.364;2023-02-01T11:21:07;95225.94;;;7.23;57.04
28626;BME280;18905;42.668;23.364;2023-02-01T11:23:33;95226.97;;;6.90;57.26
28626;BME280;18905;42.668;23.364;2023-02-01T11:26:09;95200.13;;;7.09;56.76
28626;BME280;18905;42.668;23.364;2023-02-01T11:28:38;95199.97;;;7.19;57.40
28626;BME280;18905;42.668;23.364;2023-02-01T11:31:09;95187.13;;;7.48;56.53
28626;BME280;18905;42.668;23.364;2023-02-01T11:33:38;95184.75;;;7.60;55.60
28626;BME280;18905;42.668;23.364;2023-02-01T11:36:14;95192.72;;;7.65;55.82
28626;BME280;18905;42.668;23.364;2023-02-01T11:39:06;95200.13;;;8.00;55.30
28626;BME280;18905;42.668;23.364;2023-02-01T11:41:30;95173.44;;;8.17;54.68
28626;BME280;18905;42.668;23.364;2023-02-01T11:43:59;95217.06;;;8.00;54.69
28626;BME280;18905;42.668;23.364;2023-02-01T11:46:30;95207.38;;;7.40;55.24
28626;BME280;18905;42.668;23.364;2023-02-01T11:48:57;95181.28;;;7.73;55.79
28626;BME280;18905;42.668;23.364;2023-02-01T12:11:19;95159.81;;;8.27;53.82
28626;BME280;18905;42.668;23.364;2023-02-01T12:13:56;95159.09;;;8.21;54.28
28626;BME280;18905;42.668;23.364;2023-02-01T12:30:29;95162.56;;;7.95;55.31
28626;BME280;18905;42.668;23.364;2023-02-01T12:38:36;95154.78;;;8.83;53.82
28626;BME280;18905;42.668;23.364;2023-02-01T12:43:46;95158.97;;;8.40;55.14
28626;BME280;18905;42.668;23.364;2023-02-01T12:46:17;95159.00;;;8.62;54.05
28626;BME280;18905;42.668;23.364;2023-02-01T12:51:25;95169.94;;;8.43;54.48
28626;BME280;18905;42.668;23.364;2023-02-01T12:54:01;95160.63;;;8.63;54.25
28626;BME280;18905;42.668;23.364;2023-02-01T12:56:55;95154.78;;;8.34;53.73
28626;BME280;18905;42.668;23.364;2023-02-01T12:59:28;95148.72;;;7.88;53.55
28626;BME280;18905;42.668;23.364;2023-02-01T13:02:04;95143.56;;;7.91;54.18
28626;BME280;18905;42.668;23.364;2023-02-01T13:07:39;95159.28;;;8.25;53.15
28626;BME280;18905;42.668;23.364;2023-02-01T13:10:24;95159.19;;;7.76;54.31
28626;BME280;18905;42.668;23.364;2023-02-01T13:15:37;95120.63;;;7.53;53.58
28626;BME280;18905;42.668;23.364;2023-02-01T13:18:05;95147.63;;;7.89;53.24
28626;BME280;18905;42.668;23.364;2023-02-01T13:20:49;95133.72;;;8.00;53.07
28626;BME280;18905;42.668;23.364;2023-02-01T13:23:29;95160.16;;;7.66;53.17
28626;BME280;18905;42.668;23.364;2023-02-01T13:25:55;95128.63;;;7.99;52.32
28626;BME280;18905;42.668;23.364;2023-02-01T13:28:27;95153.09;;;7.84;53.06
28626;BME280;18905;42.668;23.364;2023-02-01T13:42:24;95143.09;;;7.30;53.56
28626;BME280;18905;42.668;23.364;2023-02-01T13:44:59;95154.47;;;7.41;52.97
28626;BME280;18905;42.668;23.364;2023-02-01T13:47:30;95158.91;;;7.32;52.77
28626;BME280;18905;42.668;23.364;2023-02-01T13:50:00;95137.91;;;7.20;53.58
28626;BME280;18905;42.668;23.364;2023-02-01T13:52:39;95153.97;;;7.66;53.58
28626;BME280;18905;42.668;23.364;2023-02-01T13:57:47;95149.03;;;7.73;53.18
28626;BME280;18905;42.668;23.364;2023-02-01T14:00:34;95147.91;;;7.47;53.51
28626;BME280;18905;42.668;23.364;2023-02-01T14:10:57;95159.25;;;7.44;54.01
28626;BME280;18905;42.668;23.364;2023-02-01T14:21:27;95152.75;;;6.49;56.53
28626;BME280;18905;42.668;23.364;2023-02-01T14:29:22;95130.50;;;6.99;56.22
28626;BME280;18905;42.668;23.364;2023-02-01T14:34:18;95113.72;;;6.75;57.49
28626;BME280;18905;42.668;23.364;2023-02-01T14:36:49;95098.09;;;6.45;57.47
28626;BME280;18905;42.668;23.364;2023-02-01T14:39:21;95086.19;;;6.51;57.68
28626;BME280;18905;42.668;23.364;2023-02-01T14:41:53;95090.22;;;6.67;57.48
28626;BME280;18905;42.668;23.364;2023-02-01T14:44:26;95087.94;;;6.42;57.58
28626;BME280;18905;42.668;23.364;2023-02-01T14:52:50;95113.06;;;6.09;59.53
28626;BME280;18905;42.668;23.364;2023-02-01T14:56:12;95132.22;;;6.21;59.95
28626;BME280;18905;42.668;23.364;2023-02-01T14:58:39;95141.25;;;5.88;61.54
28626;BME280;18905;42.668;23.364;2023-02-01T15:01:20;95139.50;;;5.97;61.70
28626;BME280;18905;42.668;23.364;2023-02-01T15:04:14;95141.09;;;5.98;62.04
28626;BME280;18905;42.668;23.364;2023-02-01T15:09:14;95146.00;;;5.91;62.60
28626;BME280;18905;42.668;23.364;2023-02-01T15:11:56;95139.56;;;5.68;63.99
28626;BME280;18905;42.668;23.364;2023-02-01T15:14:21;95136.06;;;5.68;64.46
28626;BME280;18905;42.668;23.364;2023-02-01T15:16:47;95132.38;;;5.64;64.67
28626;BME280;18905;42.668;23.364;2023-02-01T15:19:20;95141.66;;;5.71;64.57
28626;BME280;18905;42.668;23.364;2023-02-01T15:21:48;95121.84;;;5.49;65.56
28626;BME280;18905;42.668;23.364;2023-02-01T15:24:20;95131.72;;;5.48;65.61
28626;BME280;18905;42.668;23.364;2023-02-01T15:26:47;95136.53;;;5.51;66.26
28626;BME280;18905;42.668;23.364;2023-02-01T15:29:16;95125.47;;;5.58;67.18
28626;BME280;18905;42.668;23.364;2023-02-01T15:31:45;95128.63;;;5.88;67.09
28626;BME280;18905;42.668;23.364;2023-02-01T15:34:11;95125.50;;;5.81;65.34
28626;BME280;18905;42.668;23.364;2023-02-01T15:36:37;95133.44;;;5.63;66.77
28626;BME280;18905;42.668;23.364;2023-02-01T15:41:48;95126.03;;;5.31;66.47
28626;BME280;18905;42.668;23.364;2023-02-01T15:44:20;95120.25;;;5.48;66.54